Time;durP1;ratioP1;P1;durP2;ratioP2;P2;SDS_P1;SDS_P2;PMS_P1;PMS_P2;Temp;Humidity;BMP_temperature;BMP_pressure;BME280_temperature;BME280_humidity;BME280_pressure;Samples;Min_cycle;Max_cycle;Signal;HPM_P1;HPM_P2
2021/03/23 00:00:51;;;;;;;21.48;15.25;;;;;;;0.14;78.60;99949.14;1718914;83;21030;-42
2021/03/23 00:03:29;;;;;;;21.48;14.13;;;;;;;0.16;78.51;99959.33;1716214;83;20908;-43
2021/03/23 00:05:58;;;;;;;21.37;14.55;;;;;;;0.14;78.36;99956.77;1719163;83;22295;-42
2021/03/23 00:08:38;;;;;;;22.27;15.18;;;;;;;0.12;78.48;99959.68;1718971;83;21070;-42
2021/03/23 00:11:11;;;;;;;20.92;14.47;;;;;;;0.11;78.43;99971.97;1719073;83;21559;-43
2021/03/23 00:13:42;;;;;;;19.62;14.13;;;;;;;0.10;78.43;99968.98;1718964;83;20960;-42
2021/03/23 00:16:10;;;;;;;24.37;15.98;;;;;;;0.09;78.60;99968.55;1719059;82;21027;-43
2021/03/23 00:18:40;;;;;;;24.92;16.35;;;;;;;0.06;78.80;99966.83;1719001;83;22404;-41
2021/03/23 00:21:10;;;;;;;25.97;15.85;;;;;;;0.05;79.10;99970.20;1705668;84;20988;-42
2021/03/23 00:23:39;;;;;;;22.20;15.85;;;;;;;0.04;79.36;99964.67;1706231;83;20967;-41
2021/03/23 00:26:07;;;;;;;24.50;16.52;;;;;;;0.03;79.56;99967.17;1706244;82;21006;-42
2021/03/23 00:28:35;;;;;;;25.55;17.75;;;;;;;0.01;79.77;99962.48;1706339;84;21023;-42
2021/03/23 00:31:03;;;;;;;22.73;15.40;;;;;;;0.00;79.91;99964.19;1706290;82;21374;-42
2021/03/23 00:33:32;;;;;;;23.75;16.60;;;;;;;-0.01;80.09;99959.49;1706154;84;20976;-42
2021/03/23 00:36:00;;;;;;;22.58;16.12;;;;;;;-0.01;80.20;99964.58;1706271;84;21039;-43
2021/03/23 00:38:29;;;;;;;27.85;16.77;;;;;;;-0.03;80.32;99962.43;1706262;83;21070;-44
2021/03/23 00:40:56;;;;;;;25.97;16.30;;;;;;;-0.04;80.44;99961.12;1706206;84;21008;-44
2021/03/23 00:43:24;;;;;;;25.00;16.52;;;;;;;-0.05;80.48;99963.22;1706147;82;21354;-41
2021/03/23 00:45:53;;;;;;;26.45;17.42;;;;;;;-0.04;80.55;99964.94;1706188;83;20959;-42
2021/03/23 00:48:21;;;;;;;25.17;17.57;;;;;;;-0.06;80.59;99962.78;1706284;84;21075;-41
2021/03/23 00:50:49;;;;;;;24.23;16.77;;;;;;;-0.07;80.64;99960.67;1706219;84;21018;-41
2021/03/23 00:53:17;;;;;;;26.10;17.40;;;;;;;-0.07;80.76;99957.25;1706267;84;21035;-42
2021/03/23 00:55:44;;;;;;;26.15;18.32;;;;;;;-0.09;80.85;99961.06;1706267;84;21332;-42
2021/03/23 00:58:12;;;;;;;28.83;18.80;;;;;;;-0.11;81.09;99958.91;1706164;83;21015;-43
2021/03/23 01:00:39;;;;;;;26.65;18.30;;;;;;;-0.12;81.20;99961.02;1706241;84;20943;-43
2021/03/23 01:03:07;;;;;;;25.23;18.30;;;;;;;-0.13;81.27;99959.27;1706194;84;20975;-42
2021/03/23 01:05:36;;;;;;;29.95;19.70;;;;;;;-0.13;81.52;99960.54;1706236;83;21014;-43
2021/03/23 01:08:05;;;;;;;29.87;19.45;;;;;;;-0.17;81.85;99953.69;1706222;84;21487;-42
2021/03/23 01:10:33;;;;;;;30.20;19.15;;;;;;;-0.15;81.95;99962.20;1706345;84;21675;-43
2021/03/23 01:13:01;;;;;;;27.60;18.57;;;;;;;-0.16;82.12;99956.67;1706231;83;21015;-43
2021/03/23 01:15:32;;;;;;;28.32;18.07;;;;;;;-0.16;82.21;99958.81;1706220;82;21003;-44
2021/03/23 01:18:00;;;;;;;25.50;18.10;;;;;;;-0.19;82.28;99952.80;1706235;83;21022;-42
2021/03/23 01:20:29;;;;;;;29.72;19.12;;;;;;;-0.20;82.36;99960.00;1706138;83;21268;-42
2021/03/23 01:22:56;;;;;;;25.17;18.05;;;;;;;-0.21;82.42;99954.47;1706179;84;21377;-41
2021/03/23 01:25:24;;;;;;;24.82;17.90;;;;;;;-0.21;82.38;99960.43;1706288;82;21022;-41
2021/03/23 01:27:52;;;;;;;29.70;18.80;;;;;;;-0.23;82.43;99954.46;1706255;84;21460;-43
2021/03/23 01:30:25;;;;;;;28.02;17.57;;;;;;;-0.24;82.42;99950.61;1706256;84;20956;-43
2021/03/23 01:32:53;;;;;;;24.87;16.73;;;;;;;-0.24;82.54;99948.93;1706296;83;22151;-42
2021/03/23 01:35:23;;;;;;;27.27;17.92;;;;;;;-0.22;82.48;99951.48;1706249;84;21011;-43
2021/03/23 01:37:50;;;;;;;26.23;17.37;;;;;;;-0.23;82.36;99956.13;1706174;84;20908;-43
2021/03/23 01:40:21;;;;;;;24.92;16.77;;;;;;;-0.25;82.28;99952.70;1706131;83;20908;-43
2021/03/23 01:42:53;;;;;;;22.50;16.23;;;;;;;-0.25;82.22;99952.70;1706176;82;20987;-43
2021/03/23 01:45:39;;;;;;;23.98;16.15;;;;;;;-0.25;82.25;99950.16;1706317;83;22273;-43
2021/03/23 01:48:22;;;;;;;25.62;15.78;;;;;;;-0.27;82.13;99956.48;1705944;83;20999;-43
2021/03/23 01:50:58;;;;;;;22.95;16.40;;;;;;;-0.27;82.10;99950.55;1706114;82;20973;-42
2021/03/23 01:53:44;;;;;;;22.30;14.68;;;;;;;-0.29;82.02;99949.23;1686203;84;21031;-41
2021/03/23 01:56:12;;;;;;;18.95;12.45;;;;;;;-0.31;82.09;99954.31;1706124;84;20982;-41
2021/03/23 01:58:44;;;;;;;23.45;14.63;;;;;;;-0.31;81.98;99958.53;1706302;84;21378;-41
2021/03/23 02:01:14;;;;;;;19.40;13.85;;;;;;;-0.32;81.85;99958.97;1706125;84;20976;-41
2021/03/23 02:03:42;;;;;;;21.65;14.85;;;;;;;-0.32;81.86;99958.97;1706241;84;20955;-42
2021/03/23 02:06:42;;;;;;;20.05;14.00;;;;;;;-0.34;81.80;99959.75;1706249;83;20904;-42
2021/03/23 02:09:21;;;;;;;20.35;14.15;;;;;;;-0.33;81.80;99960.20;1706329;84;21038;-43
2021/03/23 02:12:00;;;;;;;23.00;14.55;;;;;;;-0.31;81.74;99959.41;1847611;76;22701;-42
2021/03/23 02:14:35;;;;;;;23.12;15.18;;;;;;;-0.37;81.71;99953.34;1817855;79;21022;-42
2021/03/23 02:17:32;;;;;;;19.57;13.45;;;;;;;-0.38;81.81;99954.17;1787275;79;22236;-41
2021/03/23 02:20:07;;;;;;;;;;;;;;;-0.39;81.83;99958.39;1820453;77;20986;-42
2021/03/23 02:22:41;;;;;;;21.87;14.55;;;;;;;-0.39;81.81;99956.27;1817805;79;20148;-41
2021/03/23 02:25:21;;;;;;;20.70;13.88;;;;;;;-0.42;81.80;99958.33;1817446;79;20986;-42
2021/03/23 02:27:50;;;;;;;20.02;13.62;;;;;;;-0.44;81.60;99956.18;1817855;77;21547;-42
2021/03/23 02:30:26;;;;;;;19.87;12.55;;;;;;;-0.44;81.55;99948.15;1817783;78;21188;-41
2021/03/23 02:32:53;;;;;;;18.50;12.58;;;;;;;-0.45;81.48;99950.25;1817593;79;21512;-42
2021/03/23 02:35:22;;;;;;;16.35;12.07;;;;;;;-0.46;81.31;99946.39;1816182;79;20970;-41
2021/03/23 02:37:50;;;;;;;18.50;12.45;;;;;;;-0.45;81.10;99951.52;1817760;79;21077;-42
2021/03/23 02:40:18;;;;;;;18.55;12.55;;;;;;;-0.45;80.89;99943.89;1817749;79;21069;-42
2021/03/23 02:42:45;;;;;;;17.10;12.50;;;;;;;-0.47;80.77;99943.02;1797990;79;21136;-42
2021/03/23 02:45:13;;;;;;;17.52;10.88;;;;;;;-0.48;80.68;99944.24;1785545;80;20954;-42
2021/03/23 02:47:41;;;;;;;16.23;10.25;;;;;;;-0.49;80.41;99948.48;1785586;80;21006;-43
2021/03/23 02:50:10;;;;;;;17.32;11.18;;;;;;;-0.46;80.16;99947.66;1785484;80;21001;-43
2021/03/23 02:52:40;;;;;;;15.00;10.75;;;;;;;-0.49;80.11;99950.16;1785539;80;21084;-43
2021/03/23 02:55:10;;;;;;;16.77;11.00;;;;;;;-0.53;80.06;99954.75;1785588;80;22282;-43
2021/03/23 02:57:38;;;;;;;15.32;10.05;;;;;;;-0.53;79.88;99953.48;1785644;80;21492;-43
2021/03/23 03:00:09;;;;;;;16.67;10.80;;;;;;;-0.57;79.89;99956.80;1785544;80;21021;-43
2021/03/23 03:02:37;;;;;;;17.00;10.68;;;;;;;-0.59;79.87;99956.75;1785521;80;21041;-43
2021/03/23 03:05:07;;;;;;;15.35;9.85;;;;;;;-0.64;79.96;99957.92;1785581;80;21018;-43
2021/03/23 03:07:34;;;;;;;13.55;9.10;;;;;;;-0.68;80.06;99954.05;1785527;80;21197;-43
2021/03/23 03:10:04;;;;;;;15.05;9.18;;;;;;;-0.70;80.24;99959.52;1786752;79;21065;-43
2021/03/23 03:12:31;;;;;;;13.75;9.73;;;;;;;-0.73;80.30;99954.81;1800088;79;21021;-43
2021/03/23 03:15:00;;;;;;;15.88;9.18;;;;;;;-0.77;80.31;99959.80;1800167;79;21525;-43
2021/03/23 03:17:28;;;;;;;13.18;8.98;;;;;;;-0.81;80.41;99965.22;1800120;79;21052;-41
2021/03/23 03:19:57;;;;;;;13.55;8.73;;;;;;;-0.82;80.43;99968.59;1800129;78;21196;-43
2021/03/23 03:22:24;;;;;;;14.68;8.83;;;;;;;-0.88;80.58;99966.81;1799700;78;20954;-44
2021/03/23 03:24:52;;;;;;;14.30;8.43;;;;;;;-0.89;80.70;99973.95;1799516;79;21018;-43
2021/03/23 03:27:20;;;;;;;12.35;8.70;;;;;;;-0.91;80.69;99972.23;1799508;79;21007;-41
2021/03/23 03:29:47;;;;;;;11.45;7.25;;;;;;;-0.93;80.74;99967.10;1799593;78;20933;-42
2021/03/23 03:32:15;;;;;;;10.32;7.08;;;;;;;-0.93;80.76;99964.98;1799682;79;21371;-42
2021/03/23 03:34:44;;;;;;;10.25;6.50;;;;;;;-0.95;80.71;99959.86;1799542;79;21077;-42
2021/03/23 03:37:12;;;;;;;10.38;6.60;;;;;;;-0.94;80.30;99971.73;1799509;79;20945;-42
2021/03/23 03:39:40;;;;;;;12.43;6.75;;;;;;;-0.93;80.30;99969.64;1799438;79;20945;-40
2021/03/23 03:42:08;;;;;;;9.45;6.12;;;;;;;-0.96;80.34;99970.85;1799589;78;21490;-42
2021/03/23 03:44:35;;;;;;;9.08;5.62;;;;;;;-0.98;80.28;99980.13;1799565;78;21432;-42
2021/03/23 03:47:04;;;;;;;6.97;4.83;;;;;;;-0.98;80.19;99981.83;1799411;79;20993;-43
2021/03/23 03:49:32;;;;;;;8.00;5.20;;;;;;;-0.99;80.20;99979.69;1799568;79;20986;-44
2021/03/23 03:52:00;;;;;;;10.03;4.60;;;;;;;-1.00;80.19;99979.24;1780507;80;21548;-43
2021/03/23 03:54:27;;;;;;;6.33;4.60;;;;;;;-1.00;80.18;99983.05;1780605;80;21547;-43
2021/03/23 03:56:55;;;;;;;8.73;4.28;;;;;;;-1.01;80.11;99988.96;1780540;80;21199;-43
2021/03/23 03:59:23;;;;;;;6.37;3.42;;;;;;;-1.03;79.91;99986.37;1780549;79;20946;-41
2021/03/23 04:01:50;;;;;;;4.67;3.42;;;;;;;-1.05;79.98;99988.45;1780508;80;20994;-42
2021/03/23 04:04:19;;;;;;;7.95;3.83;;;;;;;-1.06;79.89;99993.09;1780619;80;21626;-41
2021/03/23 04:06:47;;;;;;;3.10;2.75;;;;;;;-1.07;79.98;99997.73;1780606;79;20939;-41
2021/03/23 04:09:15;;;;;;;5.17;2.90;;;;;;;-1.09;79.82;100009.12;1780588;80;22441;-41
2021/03/23 04:11:43;;;;;;;4.30;2.70;;;;;;;-1.10;79.84;100004.02;1780316;80;21006;-41
2021/03/23 04:14:10;;;;;;;3.98;2.70;;;;;;;-1.10;79.72;100001.48;1780542;80;20939;-42
2021/03/23 04:16:39;;;;;;;3.42;2.83;;;;;;;-1.11;79.86;99994.25;1780472;80;21579;-41
2021/03/23 04:19:07;;;;;;;5.70;2.75;;;;;;;-1.11;79.89;100001.88;1780507;80;21002;-42
2021/03/23 04:21:35;;;;;;;3.15;2.42;;;;;;;-1.11;79.77;100010.77;1780655;80;22115;-42
2021/03/23 04:24:04;;;;;;;5.75;2.70;;;;;;;-1.11;79.73;100014.58;1780494;80;21022;-42
2021/03/23 04:26:32;;;;;;;3.52;2.30;;;;;;;-1.11;79.68;100009.50;1780519;80;20963;-41
2021/03/23 04:29:00;;;;;;;2.65;2.30;;;;;;;-1.11;79.42;100006.11;1780474;79;21089;-42
2021/03/23 04:31:35;;;;;;;3.55;2.35;;;;;;;-1.10;79.34;100014.19;1780522;80;21022;-42
2021/03/23 04:34:03;;;;;;;2.58;1.95;;;;;;;-1.10;78.94;100022.64;1780435;80;21193;-43
2021/03/23 04:36:31;;;;;;;4.08;1.95;;;;;;;-1.11;78.81;100016.28;1780449;80;21101;-42
2021/03/23 04:38:59;;;;;;;4.37;1.62;;;;;;;-1.13;78.88;100021.74;1780509;80;21041;-42
2021/03/23 04:41:27;;;;;;;2.00;1.50;;;;;;;-1.12;78.65;100024.73;1780385;79;20990;-43
2021/03/23 04:43:56;;;;;;;3.33;1.32;;;;;;;-1.10;78.25;100025.62;1780535;80;20927;-42
2021/03/23 04:46:25;;;;;;;4.28;1.60;;;;;;;-1.11;77.85;100029.83;1780515;80;21351;-42
2021/03/23 04:48:54;;;;;;;4.08;1.70;;;;;;;-1.12;77.44;100027.27;1780471;80;21046;-42
2021/03/23 04:51:26;;;;;;;4.17;1.52;;;;;;;-1.11;77.04;100031.52;1780432;80;20923;-43
2021/03/23 04:54:04;;;;;;;1.62;1.30;;;;;;;-1.09;76.77;100036.22;1780508;80;21341;-42
2021/03/23 04:56:34;;;;;;;1.62;1.22;;;;;;;-1.09;76.44;100040.03;1780471;79;21010;-41
2021/03/23 04:59:03;;;;;;;4.42;1.75;;;;;;;-1.09;76.39;100041.30;1780564;80;22299;-42
2021/03/23 05:01:30;;;;;;;3.10;1.52;;;;;;;-1.07;76.35;100046.85;1780434;80;20958;-42
2021/03/23 05:04:03;;;;;;;5.20;1.90;;;;;;;-1.07;76.47;100044.73;1780497;80;21010;-42
2021/03/23 05:06:31;;;;;;;3.02;1.65;;;;;;;-1.02;76.52;100046.96;1780499;80;21062;-42
2021/03/23 05:08:59;;;;;;;1.47;1.40;;;;;;;-1.00;76.46;100053.36;1780528;79;21065;-43
2021/03/23 05:11:29;;;;;;;3.50;1.50;;;;;;;-0.96;76.25;100060.23;1780368;80;21189;-42
2021/03/23 05:13:58;;;;;;;4.10;2.12;;;;;;;-0.92;75.68;100059.03;1780373;79;21074;-42
2021/03/23 05:16:25;;;;;;;5.25;2.87;;;;;;;-0.89;74.99;100060.37;1756266;80;21626;-43
2021/03/23 05:18:53;;;;;;;50.90;22.62;;;;;;;-0.84;74.67;100063.45;1780423;80;21611;-42
2021/03/23 05:21:21;;;;;;;27.70;11.22;;;;;;;-0.81;74.14;100059.27;1780523;80;20978;-43
2021/03/23 05:23:50;;;;;;;6.60;3.55;;;;;;;-0.77;73.63;100053.42;1780563;79;22210;-44
2021/03/23 05:26:18;;;;;;;8.55;4.12;;;;;;;-0.70;73.24;100054.84;1780472;80;20998;-44
2021/03/23 05:28:47;;;;;;;77.95;24.30;;;;;;;-0.63;72.73;100056.29;1780491;79;20919;-41
2021/03/23 05:31:15;;;;;;;21.12;6.40;;;;;;;-0.57;72.04;100057.23;1780335;80;21013;-42
2021/03/23 05:33:43;;;;;;;3.65;1.87;;;;;;;-0.49;72.03;100057.84;1780533;79;20895;-41
2021/03/23 05:36:11;;;;;;;56.92;14.70;;;;;;;-0.39;71.42;100053.77;1780484;80;21377;-42
2021/03/23 05:38:38;;;;;;;27.98;8.33;;;;;;;-0.35;70.23;100055.58;1780474;80;21029;-42
2021/03/23 05:41:12;;;;;;;96.35;35.95;;;;;;;-0.32;69.89;100053.09;1780548;80;21006;-42
2021/03/23 05:43:51;;;;;;;11.45;4.33;;;;;;;-0.28;69.64;100059.50;1760389;80;21042;-42
2021/03/23 05:46:37;;;;;;;21.62;7.47;;;;;;;-0.25;68.25;100058.29;1780455;80;20927;-42
2021/03/23 05:49:34;;;;;;;19.05;6.40;;;;;;;-0.26;67.93;100060.39;1780649;79;21189;-42
2021/03/23 05:52:24;;;;;;;31.90;11.63;;;;;;;-0.21;67.84;100058.78;1889940;76;23228;-42
2021/03/23 05:55:19;;;;;;;20.85;9.10;;;;;;;-0.22;66.91;100055.80;1860820;77;20986;-42
2021/03/23 05:57:49;;;;;;;4.15;1.87;;;;;;;-0.19;65.84;100062.22;1848028;77;22784;-42
2021/03/23 06:00:27;;;;;;;7.97;1.37;;;;;;;-0.18;66.37;100067.34;1860674;77;20902;-41
2021/03/23 06:03:27;;;;;;;4.33;1.50;;;;;;;-0.11;66.49;100068.33;1860753;77;21256;-42
2021/03/23 06:06:22;;;;;;;3.50;1.55;;;;;;;-0.02;66.91;100071.03;1860773;77;21009;-43
2021/03/23 06:08:50;;;;;;;1.98;0.98;;;;;;;0.09;66.15;100070.36;1860772;77;20911;-41
2021/03/23 06:11:43;;;;;;;3.17;1.10;;;;;;;0.20;66.06;100067.61;1860767;77;21392;-42
2021/03/23 06:14:38;;;;;;;3.10;1.20;;;;;;;0.36;65.84;100074.23;1860687;77;21017;-42
2021/03/23 06:17:31;;;;;;;6.72;3.27;;;;;;;0.45;64.26;100082.05;1860653;77;20938;-43
2021/03/23 06:20:40;;;;;;;3.77;1.15;;;;;;;0.60;65.32;100079.30;1860774;77;21073;-41
2021/03/23 06:23:49;;;;;;;1.98;0.70;;;;;;;0.69;62.79;100080.73;1860783;77;20986;-42
2021/03/23 06:26:46;;;;;;;2.08;1.22;;;;;;;0.60;62.52;100079.30;1860731;77;21356;-41
2021/03/23 06:29:26;;;;;;;4.45;2.90;;;;;;;0.66;62.52;100088.34;1860659;77;20982;-41
2021/03/23 06:32:37;;;;;;;4.35;3.40;;;;;;;0.66;62.11;100084.52;1821116;77;21024;-42
2021/03/23 06:35:07;;;;;;;5.35;3.62;;;;;;;0.74;62.92;100103.32;1860724;77;20993;-42
2021/03/23 06:37:38;;;;;;;11.73;7.30;;;;;;;0.81;62.46;100101.30;1860850;77;21499;-42
2021/03/23 06:40:22;;;;;;;6.30;4.45;;;;;;;0.78;62.71;100101.26;1860706;77;21426;-42
2021/03/23 06:42:54;;;;;;;3.47;1.32;;;;;;;0.79;62.43;100106.80;1839303;77;20942;-42
2021/03/23 06:45:35;;;;;;;1.62;0.95;;;;;;;0.93;62.11;100106.17;1827093;78;20993;-41
2021/03/23 06:48:26;;;;;;;1.57;1.10;;;;;;;1.01;61.42;100103.31;1826910;78;21001;-41
2021/03/23 06:51:18;;;;;;;4.05;1.55;;;;;;;1.10;61.20;100102.59;1826280;78;21586;-41
2021/03/23 06:53:46;;;;;;;3.52;1.17;;;;;;;1.16;60.77;100109.05;1825079;78;22323;-42
2021/03/23 06:56:26;;;;;;;2.70;0.90;;;;;;;1.22;60.83;100111.68;1825041;78;21065;-41
2021/03/23 06:59:19;;;;;;;2.55;1.00;;;;;;;1.31;60.73;100103.74;1825078;78;21559;-42
2021/03/23 07:01:50;;;;;;;6.83;1.10;;;;;;;1.28;60.03;100106.70;1824647;78;20887;-41
2021/03/23 07:04:33;;;;;;;1.90;0.93;;;;;;;1.31;58.22;100108.41;1824391;78;20938;-42
2021/03/23 07:07:16;;;;;;;1.80;0.60;;;;;;;1.37;58.95;100105.94;1824562;78;21037;-42
2021/03/23 07:09:58;;;;;;;5.53;0.70;;;;;;;1.56;57.92;100106.19;1824309;78;20954;-41
2021/03/23 07:12:41;;;;;;;1.50;0.70;;;;;;;1.64;54.20;100098.23;1824312;78;21211;-43
2021/03/23 07:15:19;;;;;;;2.77;0.85;;;;;;;1.54;55.59;100095.11;1820916;78;20891;-42
2021/03/23 07:18:11;;;;;;;17.92;11.93;;;;;;;1.59;54.83;100102.40;1824332;78;21021;-41
2021/03/23 07:20:49;;;;;;;0.90;0.80;;;;;;;1.68;54.10;100102.53;1824363;78;21426;-42
2021/03/23 07:23:34;;;;;;;3.98;1.22;;;;;;;1.79;52.58;100100.11;1824248;78;21180;-42
2021/03/23 07:26:27;;;;;;;1.55;1.10;;;;;;;1.88;49.23;100089.13;1824518;78;21042;-43
2021/03/23 07:29:18;;;;;;;2.25;1.00;;;;;;;1.89;50.77;100092.55;1824403;78;21593;-41
2021/03/23 07:32:13;;;;;;;6.25;1.10;;;;;;;2.04;50.85;100085.48;1824037;78;20927;-41
2021/03/23 07:35:11;;;;;;;1.85;1.30;;;;;;;2.18;47.36;100075.41;1824333;78;21266;-43
2021/03/23 07:38:16;;;;;;;2.47;2.25;;;;;;;1.98;45.46;100082.02;1824370;78;20942;-41
2021/03/23 07:40:50;;;;;;;1.87;1.50;;;;;;;1.92;47.56;100078.54;1824315;78;20994;-41
2021/03/23 07:43:39;;;;;;;0.98;0.80;;;;;;;2.18;49.12;100067.74;1797108;78;20949;-42
2021/03/23 07:46:26;;;;;;;4.83;0.82;;;;;;;2.32;44.88;100071.30;1819648;78;21009;-43
2021/03/23 07:49:18;;;;;;;0.70;0.70;;;;;;;2.30;45.32;100063.61;1824358;78;21381;-43
2021/03/23 07:51:56;;;;;;;2.90;0.80;;;;;;;2.34;45.12;100068.33;1824138;78;20927;-42
2021/03/23 07:54:40;;;;;;;2.77;2.17;;;;;;;2.44;46.33;100068.84;1797049;78;20989;-42
2021/03/23 07:57:35;;;;;;;3.87;1.80;;;;;;;2.57;44.37;100075.34;1824336;78;21764;-42
2021/03/23 08:00:49;;;;;;;3.75;2.00;;;;;;;2.37;45.07;100080.26;1847669;76;22375;-42
2021/03/23 08:03:43;;;;;;;4.12;1.50;;;;;;;2.18;44.98;100070.30;1817900;78;21065;-42
2021/03/23 08:06:34;;;;;;;1.10;0.90;;;;;;;2.20;46.26;100064.37;1785332;79;21426;-42
2021/03/23 08:09:32;;;;;;;1.67;0.90;;;;;;;2.55;43.13;100066.81;1817756;78;21037;-43
2021/03/23 08:12:27;;;;;;;2.58;1.07;;;;;;;2.58;44.56;100075.34;1799030;77;20955;-42
2021/03/23 08:15:19;;;;;;;2.43;1.30;;;;;;;2.42;45.16;100065.41;1818041;77;20943;-42
2021/03/23 08:18:06;;;;;;;3.25;1.12;;;;;;;2.35;45.06;100072.59;1817768;79;20926;-40
2021/03/23 08:21:12;;;;;;;4.58;0.98;;;;;;;2.12;44.30;100068.13;1817860;77;21197;-43
2021/03/23 08:24:09;;;;;;;2.83;1.10;;;;;;;1.93;44.41;100067.08;1817678;77;20923;-42
2021/03/23 08:27:03;;;;;;;2.55;0.90;;;;;;;1.80;44.95;100067.37;1817779;79;20946;-41
2021/03/23 08:30:12;;;;;;;1.98;1.47;;;;;;;2.06;44.75;100070.63;1817161;79;20994;-43
2021/03/23 08:32:50;;;;;;;0.85;0.85;;;;;;;2.24;44.21;100071.22;1817840;79;21057;-42
2021/03/23 08:35:37;;;;;;;3.12;1.15;;;;;;;2.32;44.79;100069.15;1817758;78;20931;-42
2021/03/23 08:38:41;;;;;;;2.12;1.10;;;;;;;2.53;45.91;100070.63;1817195;79;21117;-42
2021/03/23 08:41:42;;;;;;;1.57;1.00;;;;;;;2.55;45.58;100072.77;1817840;79;21038;-41
2021/03/23 08:44:21;;;;;;;1.15;1.00;;;;;;;2.17;44.16;100070.73;1785382;80;20958;-44
2021/03/23 08:46:49;;;;;;;1.32;1.00;;;;;;;1.92;44.19;100076.86;1777435;80;20971;-41
2021/03/23 08:49:18;;;;;;;3.67;2.40;;;;;;;1.79;44.72;100087.75;1785594;80;21343;-43
2021/03/23 08:51:48;;;;;;;2.42;1.40;;;;;;;1.74;44.85;100077.92;1785496;80;21566;-43
2021/03/23 08:54:49;;;;;;;6.25;1.92;;;;;;;1.78;46.21;100087.32;1785546;80;20970;-43
2021/03/23 08:57:17;;;;;;;4.95;2.35;;;;;;;1.86;43.08;100093.36;1785476;80;21006;-42
2021/03/23 08:59:49;;;;;;;3.65;1.50;;;;;;;1.78;45.06;100085.64;1769540;79;21114;-42
2021/03/23 09:02:30;;;;;;;2.37;1.32;;;;;;;1.74;46.14;100088.97;1802938;79;21362;-43
2021/03/23 09:04:58;;;;;;;5.45;1.05;;;;;;;1.69;46.70;100078.72;1802841;79;21054;-41
2021/03/23 09:07:31;;;;;;;2.35;1.52;;;;;;;1.53;44.56;100085.74;1802915;79;21060;-42
2021/03/23 09:09:59;;;;;;;2.35;1.85;;;;;;;1.48;44.99;100087.38;1802655;79;20921;-42
2021/03/23 09:12:44;;;;;;;1.32;0.70;;;;;;;1.57;44.41;100100.25;1802300;78;21021;-42
2021/03/23 09:15:26;;;;;;;5.08;0.65;;;;;;;1.61;41.33;100091.79;1802414;79;21524;-42
2021/03/23 09:18:06;;;;;;;9.13;1.30;;;;;;;1.78;40.71;100077.11;1801764;79;21048;-43
2021/03/23 09:20:42;;;;;;;6.33;0.65;;;;;;;2.01;41.63;100078.63;1802400;79;21582;-43
2021/03/23 09:23:22;;;;;;;6.12;0.80;;;;;;;2.52;41.53;100094.87;1802302;79;20934;-42
2021/03/23 09:26:11;;;;;;;9.80;1.40;;;;;;;2.10;44.46;100103.00;1802421;79;21561;-43
2021/03/23 09:28:50;;;;;;;2.72;0.85;;;;;;;1.65;45.88;100103.77;1802363;79;21193;-42
2021/03/23 09:31:22;;;;;;;0.70;0.55;;;;;;;1.20;47.47;100096.78;1788235;80;21037;-43
2021/03/23 09:33:52;;;;;;;2.12;0.88;;;;;;;0.92;48.73;100086.61;1749620;80;20915;-44
2021/03/23 09:36:37;;;;;;;7.65;1.35;;;;;;;0.83;48.30;100084.34;1788578;80;21069;-42
2021/03/23 09:39:19;;;;;;;2.33;1.00;;;;;;;0.81;48.48;100086.02;1788883;80;21054;-42
2021/03/23 09:41:54;;;;;;;0.68;0.47;;;;;;;0.99;48.68;100076.51;1788501;80;21331;-41
2021/03/23 09:44:29;;;;;;;2.58;0.70;;;;;;;1.21;44.11;100079.80;1788486;80;20958;-43
2021/03/23 09:46:58;;;;;;;13.15;1.12;;;;;;;1.34;42.71;100074.02;1788541;80;20994;-41
2021/03/23 09:49:31;;;;;;;1.40;0.50;;;;;;;1.60;42.97;100072.21;1788557;80;21011;-42
2021/03/23 09:52:09;;;;;;;1.82;0.90;;;;;;;1.99;40.60;100072.25;1786232;80;21013;-43
2021/03/23 09:54:53;;;;;;;7.95;0.72;;;;;;;2.46;39.43;100062.88;1788620;80;20934;-43
2021/03/23 09:57:30;;;;;;;0.90;0.50;;;;;;;3.04;38.19;100065.46;1788513;80;21468;-43
2021/03/23 10:00:01;;;;;;;1.50;0.90;;;;;;;3.19;32.37;100054.02;1779410;80;21009;-43
2021/03/23 10:02:34;;;;;;;2.50;0.85;;;;;;;3.28;34.87;100054.50;1780496;80;20931;-42
2021/03/23 10:05:21;;;;;;;1.90;0.70;;;;;;;3.32;35.90;100072.84;1780570;80;21002;-42
2021/03/23 10:07:51;;;;;;;3.30;0.68;;;;;;;3.00;36.61;100070.53;1730643;82;21387;-42
2021/03/23 10:10:31;;;;;;;0.50;0.47;;;;;;;2.68;39.01;100065.21;1766408;80;20994;-43
2021/03/23 10:13:18;;;;;;;8.13;1.22;;;;;;;2.77;39.50;100069.11;1761637;81;21561;-43
2021/03/23 10:15:46;;;;;;;4.50;0.65;;;;;;;2.47;39.49;100059.08;1730044;81;20969;-42
2021/03/23 10:18:33;;;;;;;2.42;0.80;;;;;;;2.25;39.05;100065.67;1761836;80;21032;-42
2021/03/23 10:21:07;;;;;;;9.50;0.80;;;;;;;1.88;37.28;100062.32;1731744;82;26557;-43
2021/03/23 10:23:44;;;;;;;0.78;0.53;;;;;;;1.85;38.62;100071.22;1780472;80;20987;-42
2021/03/23 10:26:12;;;;;;;2.98;0.70;;;;;;;2.18;37.87;100065.19;1761637;80;20945;-42
2021/03/23 10:28:56;;;;;;;1.00;0.47;;;;;;;2.40;36.82;100065.83;1780398;80;21340;-42
2021/03/23 10:31:36;;;;;;;1.62;0.95;;;;;;;2.52;37.36;100059.09;1761681;80;20933;-43
2021/03/23 10:34:12;;;;;;;2.70;0.70;;;;;;;2.61;38.34;100058.31;1780576;80;22255;-42
2021/03/23 10:38:50;;;;;;;0.53;0.53;;;;;;;2.45;38.20;100039.05;1776904;79;22660;-43
2021/03/23 10:41:25;;;;;;;1.82;0.65;;;;;;;2.28;39.32;100047.84;1749598;82;21453;-42
2021/03/23 10:44:13;;;;;;;3.45;0.40;;;;;;;2.37;38.78;100047.92;1719538;83;21369;-42
2021/03/23 10:46:43;;;;;;;1.35;0.60;;;;;;;2.58;35.22;100042.55;1696095;83;21045;-42
2021/03/23 10:49:24;;;;;;;0.88;0.72;;;;;;;2.52;34.05;100038.24;1719606;83;21476;-41
2021/03/23 10:51:56;;;;;;;0.88;0.50;;;;;;;2.44;35.91;100036.06;1719587;83;20998;-42
2021/03/23 10:54:30;;;;;;;0.65;0.37;;;;;;;2.67;35.15;100037.50;1719727;83;20947;-43
2021/03/23 10:57:01;;;;;;;0.65;0.60;;;;;;;3.04;34.91;100033.49;1719616;83;21376;-43
2021/03/23 10:59:32;;;;;;;0.82;0.68;;;;;;;3.57;34.75;100028.17;1715633;83;21045;-43
2021/03/23 11:05:08;;;;;;;0.88;0.65;;;;;;;4.08;33.42;100031.29;1847678;76;22758;-41
2021/03/23 11:07:58;;;;;;;1.95;0.72;;;;;;;3.65;35.47;100041.84;1818047;78;21005;-42
2021/03/23 11:10:31;;;;;;;0.90;0.75;;;;;;;3.25;35.88;100051.48;1817842;79;21366;-43
2021/03/23 11:12:58;;;;;;;2.50;1.20;;;;;;;2.86;36.83;100051.27;1817833;77;21451;-43
2021/03/23 11:15:32;;;;;;;1.55;1.05;;;;;;;2.76;37.46;100044.39;1817842;79;21053;-42
2021/03/23 11:17:59;;;;;;;1.50;0.98;;;;;;;2.68;37.67;100051.16;1817736;79;21037;-43
2021/03/23 11:20:37;;;;;;;4.45;2.80;;;;;;;2.79;37.88;100044.41;1817848;78;21002;-43
2021/03/23 11:23:33;;;;;;;2.83;1.70;;;;;;;3.19;38.80;100041.23;1817789;78;21195;-43
2021/03/23 11:26:01;;;;;;;1.67;1.00;;;;;;;3.68;35.66;100026.94;1817759;79;21013;-41
2021/03/23 11:28:30;;;;;;;2.70;0.70;;;;;;;3.82;35.31;100032.09;1817803;79;20990;-41
2021/03/23 11:31:01;;;;;;;3.65;0.70;;;;;;;3.65;35.18;100016.25;1817730;79;20974;-41
2021/03/23 11:33:30;;;;;;;1.92;0.80;;;;;;;3.15;35.88;100032.67;1817779;79;20989;-42
2021/03/23 11:35:59;;;;;;;43.28;2.02;;;;;;;2.95;37.85;100023.63;1817858;79;22330;-42
2021/03/23 11:38:27;;;;;;;8.80;1.00;;;;;;;2.87;37.75;100018.45;1817662;79;20994;-42
2021/03/23 11:40:56;;;;;;;47.33;1.82;;;;;;;3.01;36.80;100024.09;1817766;78;21010;-43
2021/03/23 11:43:32;;;;;;;26.02;2.27;;;;;;;2.98;38.21;100021.08;1791643;78;21073;-43
2021/03/23 11:46:05;;;;;;;3.98;0.98;;;;;;;3.23;37.50;99983.27;1784653;80;20891;-43
2021/03/23 11:48:35;;;;;;;3.87;0.70;;;;;;;3.37;37.81;100007.20;1756538;80;21208;-43
2021/03/23 11:51:03;;;;;;;52.20;1.87;;;;;;;3.73;36.70;100011.16;1785529;80;21018;-44
2021/03/23 11:53:33;;;;;;;3.77;0.88;;;;;;;3.78;35.91;100006.89;1785566;80;20938;-41
2021/03/23 11:56:02;;;;;;;2.37;1.00;;;;;;;3.69;36.04;100014.56;1785598;80;21480;-40
2021/03/23 11:58:32;;;;;;;55.05;2.30;;;;;;;3.64;38.12;100005.58;1785613;80;21069;-41
2021/03/23 12:01:01;;;;;;;6.50;0.65;;;;;;;3.68;36.67;100003.89;1785564;80;21479;-44
2021/03/23 12:03:29;;;;;;;3.70;1.87;;;;;;;3.47;35.97;100019.61;1785364;79;21054;-41
2021/03/23 12:06:00;;;;;;;1.85;1.10;;;;;;;2.93;38.23;100018.92;1785552;80;20994;-43
2021/03/23 12:08:47;;;;;;;1.70;0.90;;;;;;;2.63;40.12;100025.95;1785580;80;21101;-42
2021/03/23 12:12:08;;;;;;;2.30;1.07;;;;;;;2.54;40.68;100027.61;1785536;80;20982;-41